Gulbeniz A — TCZK8 — position and weather

sailwx.info

Track history (hours):
 
Tides and Currents Weather Stations Pressure Air Temp Water Temp Dewpoint Dewpoint Depression Visibility Wind Speed Wind Dir Waves Ship Positions

Gulbeniz A

Last reported at 2016-Dec-02 04:32 UTC. Time now 2016-Dec-03 09:38 UTC.
Position N 39°49' E 024°10'.

Length 210 m; draft 11 m.

Type: Ship (hazmat cat A). MMSI: 271042493.

Date/timePositionNaut miles runAvg speedWind from/ knotsBaromVisibWave heightAir tempDewpointWater temp
2016-Dec-02 04:32N 39°49' E 024°10'76 5.1
2016-Dec-01 13:33N 40°38' E 022°54'0 0.0
2016-Dec-01 12:33N 40°38' E 022°54'0 0.0
2016-Dec-01 11:33N 40°38' E 022°54'0 0.0
2016-Dec-01 10:33N 40°38' E 022°54'0 0.0
2016-Dec-01 09:33N 40°38' E 022°54'0 0.0
2016-Dec-01 08:33N 40°38' E 022°54'0 0.0
2016-Dec-01 07:33N 40°38' E 022°54'0 0.0
2016-Dec-01 06:33N 40°38' E 022°54'0 0.0
2016-Dec-01 05:33N 40°38' E 022°54'0 0.0
2016-Dec-01 04:31N 40°38' E 022°54'0 0.0
2016-Dec-01 03:33N 40°38' E 022°54'0 0.0
2016-Dec-01 02:33N 40°38' E 022°54'0 0.0
2016-Dec-01 01:33N 40°38' E 022°54'0 0.0
2016-Dec-01 00:33N 40°38' E 022°54'0 0.0
2016-Nov-30 23:33N 40°38' E 022°54'0 0.2
2016-Nov-30 22:33N 40°38' E 022°54'2 2.1
2016-Nov-30 21:33N 40°36' E 022°56'0 0.0
2016-Nov-30 20:27N 40°36' E 022°56'0 0.0
2016-Nov-30 19:27N 40°36' E 022°55'0 0.0
2016-Nov-30 18:30N 40°36' E 022°55'0 0.0
2016-Nov-30 17:30N 40°36' E 022°55'0 0.0
2016-Nov-30 16:30N 40°36' E 022°56'0 0.0
2016-Nov-30 15:30N 40°36' E 022°56'0 0.0
2016-Nov-30 14:33N 40°36' E 022°56'0 0.0
2016-Nov-30 13:30N 40°36' E 022°56'0 0.1
2016-Nov-30 12:33N 40°36' E 022°56'0 0.0
2016-Nov-30 11:33N 40°36' E 022°56'0 0.0
2016-Nov-30 10:33N 40°36' E 022°56'0 0.1
2016-Nov-30 09:33N 40°36' E 022°55'0 0.3
2016-Nov-30 08:33N 40°36' E 022°55'1111.3
2016-Nov-30 07:33N 40°27' E 022°47'1716.5
2016-Nov-30 06:31N 40°11' E 022°55'16615.1
2016-Nov-29 19:33N 37°43' E 024°32'3215.7
2016-Nov-29 17:31N 37°16' E 024°10'39515.2
2016-Nov-28 15:27N 37°50' E 015°53'1516.4
2016-Nov-28 14:33N 37°56' E 015°36'1716.6
2016-Nov-28 13:34N 38°13' E 015°36'1312.7
2016-Nov-28 12:34N 38°25' E 015°32'1717.4
2016-Nov-28 11:33N 38°38' E 015°16'1817.4
2016-Nov-28 10:33N 38°48' E 014°58'52316.9
2016-Nov-27 03:33N 43°13' E 005°01'1312.7
2016-Nov-27 02:33N 43°24' E 004°52'2 1.6
2016-Nov-27 01:32N 43°25' E 004°50'0 0.0
2016-Nov-27 00:26N 43°25' E 004°50'0 0.0
2016-Nov-26 21:20N 43°25' E 004°50'0 0.0
2016-Nov-26 20:32N 43°25' E 004°50'0 0.0
2016-Nov-26 15:33N 43°25' E 004°50'9 8.7
2016-Nov-26 14:34N 43°19' E 004°59'178 5.7
2016-Nov-25 07:12N 41°13' E 002°10'1 0.7
2016-Nov-25 06:29N 41°13' E 002°09'6 2.9
2016-Nov-25 04:29N 41°09' E 002°04'1213.3
2016-Nov-25 03:33N 40°60' E 001°53'1413.7
2016-Nov-25 02:34N 40°49' E 001°42'1413.8
2016-Nov-25 01:33N 40°38' E 001°31'1514.7
2016-Nov-25 00:33N 40°30' E 001°15'86 4.1
2016-Nov-24 03:17N 39°32' W 000°09'1013.1
2016-Nov-24 02:33N 39°26' W 000°18'1 0.4
2016-Nov-24 00:13N 39°26' W 000°19'0 0.0
2016-Nov-23 23:19N 39°26' W 000°19'0 0.0
2016-Nov-23 22:19N 39°26' W 000°19'0 0.0
2016-Nov-23 21:31N 39°26' W 000°19'0 0.0
2016-Nov-23 20:22N 39°26' W 000°19'0 0.0
2016-Nov-23 18:07N 39°26' W 000°19'0 0.0
2016-Nov-23 17:31N 39°26' W 000°19'0 0.0
2016-Nov-23 16:13N 39°26' W 000°19'0 0.0
2016-Nov-23 15:31N 39°26' W 000°19'0 0.0
2016-Nov-23 14:31N 39°26' W 000°19'0 0.0
2016-Nov-23 13:31N 39°26' W 000°19'0 0.0
2016-Nov-23 12:31N 39°26' W 000°19'0 0.0
2016-Nov-23 11:31N 39°26' W 000°19'0 0.0
2016-Nov-23 10:34N 39°26' W 000°19'0 0.0
2016-Nov-23 08:19N 39°26' W 000°19'0 0.0
2016-Nov-23 06:04N 39°26' W 000°19'3 1.2
2016-Nov-23 03:24N 39°24' W 000°16'0 0.0
2016-Nov-23 02:30N 39°24' W 000°16'0 0.0
2016-Nov-22 20:33N 39°24' W 000°16'0 0.0
2016-Nov-22 19:30N 39°24' W 000°16'0 0.1
2016-Nov-22 17:33N 39°24' W 000°16'0 0.0
2016-Nov-22 16:12N 39°24' W 000°16'0 0.4
2016-Nov-22 15:10N 39°24' W 000°16'3 5.6
2016-Nov-22 14:34N 39°27' W 000°19'0 0.1
2016-Nov-22 13:07N 39°27' W 000°19'0 0.0
2016-Nov-22 10:25N 39°27' W 000°19'0 0.0
2016-Nov-22 09:25N 39°27' W 000°19'0 0.0
2016-Nov-22 08:25N 39°27' W 000°19'0 0.0
2016-Nov-22 07:31N 39°27' W 000°19'0 0.0
2016-Nov-22 05:31N 39°27' W 000°19'  
Track history (hours):
 
Tides and Currents Weather Stations Pressure Air Temp Water Temp Dewpoint Dewpoint Depression Visibility Wind Speed Wind Dir Waves Ship Positions

Gulbeniz A

Last reported at 2016-Dec-02 04:32 UTC. Time now 2016-Dec-03 09:38 UTC.
Position N 39°49' E 024°10'.

Length 210 m; draft 11 m.

Type: Ship (hazmat cat A). MMSI: 271042493.

Date/timePositionNaut miles runAvg speedWind from/ knotsBaromVisibWave heightAir tempDewpointWater temp
2016-Dec-02 04:32N 39°49' E 024°10'76 5.1
2016-Dec-01 13:33N 40°38' E 022°54'0 0.0
2016-Dec-01 12:33N 40°38' E 022°54'0 0.0
2016-Dec-01 11:33N 40°38' E 022°54'0 0.0
2016-Dec-01 10:33N 40°38' E 022°54'0 0.0
2016-Dec-01 09:33N 40°38' E 022°54'0 0.0
2016-Dec-01 08:33N 40°38' E 022°54'0 0.0
2016-Dec-01 07:33N 40°38' E 022°54'0 0.0
2016-Dec-01 06:33N 40°38' E 022°54'0 0.0
2016-Dec-01 05:33N 40°38' E 022°54'0 0.0
2016-Dec-01 04:31N 40°38' E 022°54'0 0.0
2016-Dec-01 03:33N 40°38' E 022°54'0 0.0
2016-Dec-01 02:33N 40°38' E 022°54'0 0.0
2016-Dec-01 01:33N 40°38' E 022°54'0 0.0
2016-Dec-01 00:33N 40°38' E 022°54'0 0.0
2016-Nov-30 23:33N 40°38' E 022°54'0 0.2
2016-Nov-30 22:33N 40°38' E 022°54'2 2.1
2016-Nov-30 21:33N 40°36' E 022°56'0 0.0
2016-Nov-30 20:27N 40°36' E 022°56'0 0.0
2016-Nov-30 19:27N 40°36' E 022°55'0 0.0
2016-Nov-30 18:30N 40°36' E 022°55'0 0.0
2016-Nov-30 17:30N 40°36' E 022°55'0 0.0
2016-Nov-30 16:30N 40°36' E 022°56'0 0.0
2016-Nov-30 15:30N 40°36' E 022°56'0 0.0
2016-Nov-30 14:33N 40°36' E 022°56'0 0.0
2016-Nov-30 13:30N 40°36' E 022°56'0 0.1
2016-Nov-30 12:33N 40°36' E 022°56'0 0.0
2016-Nov-30 11:33N 40°36' E 022°56'0 0.0
2016-Nov-30 10:33N 40°36' E 022°56'0 0.1
2016-Nov-30 09:33N 40°36' E 022°55'0 0.3
2016-Nov-30 08:33N 40°36' E 022°55'1111.3
2016-Nov-30 07:33N 40°27' E 022°47'1716.5
2016-Nov-30 06:31N 40°11' E 022°55'16615.1
2016-Nov-29 19:33N 37°43' E 024°32'3215.7
2016-Nov-29 17:31N 37°16' E 024°10'39515.2
2016-Nov-28 15:27N 37°50' E 015°53'1516.4
2016-Nov-28 14:33N 37°56' E 015°36'1716.6
2016-Nov-28 13:34N 38°13' E 015°36'1312.7
2016-Nov-28 12:34N 38°25' E 015°32'1717.4
2016-Nov-28 11:33N 38°38' E 015°16'1817.4
2016-Nov-28 10:33N 38°48' E 014°58'52316.9
2016-Nov-27 03:33N 43°13' E 005°01'1312.7
2016-Nov-27 02:33N 43°24' E 004°52'2 1.6
2016-Nov-27 01:32N 43°25' E 004°50'0 0.0
2016-Nov-27 00:26N 43°25' E 004°50'0 0.0
2016-Nov-26 21:20N 43°25' E 004°50'0 0.0
2016-Nov-26 20:32N 43°25' E 004°50'0 0.0
2016-Nov-26 15:33N 43°25' E 004°50'9 8.7
2016-Nov-26 14:34N 43°19' E 004°59'178 5.7
2016-Nov-25 07:12N 41°13' E 002°10'1 0.7
2016-Nov-25 06:29N 41°13' E 002°09'6 2.9
2016-Nov-25 04:29N 41°09' E 002°04'1213.3
2016-Nov-25 03:33N 40°60' E 001°53'1413.7
2016-Nov-25 02:34N 40°49' E 001°42'1413.8
2016-Nov-25 01:33N 40°38' E 001°31'1514.7
2016-Nov-25 00:33N 40°30' E 001°15'86 4.1
2016-Nov-24 03:17N 39°32' W 000°09'1013.1
2016-Nov-24 02:33N 39°26' W 000°18'1 0.4
2016-Nov-24 00:13N 39°26' W 000°19'0 0.0
2016-Nov-23 23:19N 39°26' W 000°19'0 0.0
2016-Nov-23 22:19N 39°26' W 000°19'0 0.0
2016-Nov-23 21:31N 39°26' W 000°19'0 0.0
2016-Nov-23 20:22N 39°26' W 000°19'0 0.0
2016-Nov-23 18:07N 39°26' W 000°19'0 0.0
2016-Nov-23 17:31N 39°26' W 000°19'0 0.0
2016-Nov-23 16:13N 39°26' W 000°19'0 0.0
2016-Nov-23 15:31N 39°26' W 000°19'0 0.0
2016-Nov-23 14:31N 39°26' W 000°19'0 0.0
2016-Nov-23 13:31N 39°26' W 000°19'0 0.0
2016-Nov-23 12:31N 39°26' W 000°19'0 0.0
2016-Nov-23 11:31N 39°26' W 000°19'0 0.0
2016-Nov-23 10:34N 39°26' W 000°19'0 0.0
2016-Nov-23 08:19N 39°26' W 000°19'0 0.0
2016-Nov-23 06:04N 39°26' W 000°19'3 1.2
2016-Nov-23 03:24N 39°24' W 000°16'0 0.0
2016-Nov-23 02:30N 39°24' W 000°16'0 0.0
2016-Nov-22 20:33N 39°24' W 000°16'0 0.0
2016-Nov-22 19:30N 39°24' W 000°16'0 0.1
2016-Nov-22 17:33N 39°24' W 000°16'0 0.0
2016-Nov-22 16:12N 39°24' W 000°16'0 0.4
2016-Nov-22 15:10N 39°24' W 000°16'3 5.6
2016-Nov-22 14:34N 39°27' W 000°19'0 0.1
2016-Nov-22 13:07N 39°27' W 000°19'0 0.0
2016-Nov-22 10:25N 39°27' W 000°19'0 0.0
2016-Nov-22 09:25N 39°27' W 000°19'0 0.0
2016-Nov-22 08:25N 39°27' W 000°19'0 0.0
2016-Nov-22 07:31N 39°27' W 000°19'0 0.0
2016-Nov-22 05:31N 39°27' W 000°19'  

Dump ship's entire track history